createdAt,value
2023-01-10T00:02:07.228Z,16.97
2023-01-10T00:04:35.782Z,18.23
2023-01-10T00:07:04.278Z,17.60
2023-01-10T00:09:32.801Z,18.17
2023-01-10T00:12:23.691Z,18.60
2023-01-10T00:14:52.891Z,18.13
2023-01-10T00:17:22.991Z,18.17
2023-01-10T00:19:51.472Z,16.93
2023-01-10T00:22:25.306Z,18.00
2023-01-10T00:24:53.914Z,18.33
2023-01-10T00:27:23.917Z,18.30
2023-01-10T00:29:54.042Z,19.27
2023-01-10T00:32:24.229Z,17.57
2023-01-10T00:34:52.660Z,18.20
2023-01-10T00:37:21.212Z,17.93
2023-01-10T00:39:49.723Z,18.17
2023-01-10T00:42:35.610Z,16.90
2023-01-10T00:45:04.093Z,17.20
2023-01-10T00:47:33.959Z,16.17
2023-01-10T00:50:02.509Z,16.43
2023-01-10T00:52:30.980Z,17.00
2023-01-10T00:54:59.535Z,16.63
2023-01-10T00:57:28.087Z,16.73
2023-01-10T00:59:56.493Z,15.80
2023-01-10T01:02:25.105Z,15.40
2023-01-10T01:04:55.247Z,16.97
2023-01-10T01:07:24.069Z,16.37
2023-01-10T01:10:10.646Z,16.23
2023-01-10T01:12:39.148Z,15.83
2023-01-10T01:15:08.754Z,15.27
2023-01-10T01:17:37.251Z,16.50
2023-01-10T01:20:08.499Z,16.53
2023-01-10T01:22:37.802Z,15.63
2023-01-10T01:25:10.320Z,14.97
2023-01-10T01:27:39.266Z,16.13
2023-01-10T01:30:09.287Z,15.67
2023-01-10T01:32:37.944Z,15.47
2023-01-10T01:35:10.135Z,14.77
2023-01-10T01:37:39.489Z,14.50
2023-01-10T01:40:09.266Z,14.33
2023-01-10T01:42:38.056Z,12.67
2023-01-10T01:45:41.686Z,12.93
2023-01-10T01:48:30.255Z,13.93
2023-01-10T01:51:07.945Z,12.90
2023-01-10T01:53:42.009Z,11.77
2023-01-10T01:56:15.573Z,11.83
2023-01-10T01:58:49.718Z,11.77
2023-01-10T02:01:19.362Z,11.33
2023-01-10T02:03:53.983Z,10.33
2023-01-10T02:06:27.108Z,9.63
2023-01-10T02:09:04.747Z,10.07
2023-01-10T02:11:33.785Z,8.53
2023-01-10T02:14:06.959Z,10.03
2023-01-10T02:16:35.537Z,9.03
2023-01-10T02:19:07.191Z,8.90
2023-01-10T02:22:03.648Z,8.90
2023-01-10T02:25:15.532Z,8.83
2023-01-10T02:28:00.354Z,8.03
2023-01-10T02:31:00.504Z,7.70
2023-01-10T02:33:32.838Z,8.67
2023-01-10T02:36:22.413Z,6.93
2023-01-10T02:39:02.163Z,7.40
2023-01-10T02:41:37.702Z,7.60
2023-01-10T02:44:13.140Z,7.20
2023-01-10T02:46:43.239Z,7.00
2023-01-10T02:49:13.403Z,7.33
2023-01-10T02:51:42.011Z,7.13
2023-01-10T02:54:15.179Z,6.93
2023-01-10T02:57:10.189Z,7.13
2023-01-10T03:00:10.321Z,7.00
2023-01-10T03:02:49.183Z,5.97
2023-01-10T03:05:30.472Z,6.90
2023-01-10T03:08:10.673Z,6.50
2023-01-10T03:10:46.780Z,6.50
2023-01-10T03:13:21.399Z,6.27
2023-01-10T03:15:52.292Z,5.77
2023-01-10T03:18:25.962Z,6.10
2023-01-10T03:20:57.417Z,5.67
2023-01-10T03:23:27.639Z,5.10
2023-01-10T03:25:59.037Z,5.70
2023-01-10T03:28:33.467Z,5.43
2023-01-10T03:31:10.329Z,5.90
2023-01-10T03:33:39.612Z,5.37
2023-01-10T03:36:21.102Z,5.20
2023-01-10T03:38:53.073Z,5.07
2023-01-10T03:41:32.483Z,5.37
2023-01-10T03:44:30.874Z,4.93
2023-01-10T03:47:06.304Z,4.57
2023-01-10T03:49:37.443Z,4.27
2023-01-10T03:52:09.024Z,4.83
2023-01-10T03:54:37.652Z,4.93
2023-01-10T03:57:08.343Z,4.67
2023-01-10T03:59:36.954Z,4.73
2023-01-10T04:02:05.578Z,4.37
2023-01-10T04:04:34.118Z,4.47
2023-01-10T04:07:02.562Z,4.40
2023-01-10T04:09:32.455Z,3.60
2023-01-10T04:12:01.015Z,4.20
2023-01-10T04:14:29.799Z,4.67
2023-01-10T04:16:58.431Z,4.07
2023-01-10T04:19:26.880Z,4.27
2023-01-10T04:21:55.512Z,3.77
2023-01-10T04:24:23.940Z,4.77
2023-01-10T04:26:53.980Z,4.43
2023-01-10T04:29:22.464Z,4.33
2023-01-10T04:31:51.512Z,4.50
2023-01-10T04:34:20.439Z,4.20
2023-01-10T04:36:50.584Z,4.87
2023-01-10T04:39:19.367Z,3.70
2023-01-10T04:41:50.378Z,4.33
2023-01-10T04:44:20.258Z,3.80
2023-01-10T04:46:48.678Z,4.10
2023-01-10T04:49:17.186Z,4.27
2023-01-10T04:51:45.686Z,3.80
2023-01-10T04:54:14.081Z,3.90
2023-01-10T04:56:42.505Z,4.10
2023-01-10T04:59:11.789Z,4.27
2023-01-10T05:01:41.738Z,3.83
2023-01-10T05:04:10.646Z,4.33
2023-01-10T05:06:40.485Z,3.80
2023-01-10T05:09:09.090Z,4.00
2023-01-10T05:11:37.766Z,4.03
2023-01-10T05:14:06.223Z,4.43
2023-01-10T05:16:35.428Z,4.63
2023-01-10T05:19:05.577Z,4.17
2023-01-10T05:21:34.178Z,3.70
2023-01-10T05:24:02.729Z,3.77
2023-01-10T05:26:33.201Z,3.70
2023-01-10T05:29:01.778Z,3.53
2023-01-10T05:31:30.539Z,3.37
2023-01-10T05:33:59.105Z,3.83
2023-01-10T05:36:29.083Z,3.87
2023-01-10T05:38:57.514Z,3.30
2023-01-10T05:41:26.008Z,3.20
2023-01-10T05:43:54.610Z,3.47
2023-01-10T05:46:23.090Z,3.57
2023-01-10T05:48:53.276Z,3.40
2023-01-10T05:51:21.704Z,3.43
2023-01-10T05:53:51.656Z,3.77
2023-01-10T05:56:20.649Z,3.40
2023-01-10T05:58:57.016Z,3.60
2023-01-10T06:01:33.314Z,3.57
2023-01-10T06:04:02.252Z,3.40
2023-01-10T06:06:30.679Z,3.93
2023-01-10T06:09:00.553Z,3.33
2023-01-10T06:11:30.445Z,3.73
2023-01-10T06:13:59.014Z,3.60
2023-01-10T06:16:27.400Z,3.37
2023-01-10T06:18:55.866Z,3.53
2023-01-10T06:21:24.298Z,3.50
2023-01-10T06:23:52.795Z,3.17
2023-01-10T06:26:22.725Z,3.33
2023-01-10T06:28:51.309Z,2.90
2023-01-10T06:31:22.379Z,3.57
2023-01-10T06:33:52.080Z,4.10
2023-01-10T06:36:20.972Z,3.87
2023-01-10T06:38:49.419Z,3.30
2023-01-10T06:41:17.817Z,3.37
2023-01-10T06:43:48.706Z,3.50
2023-01-10T06:46:20.051Z,3.43
2023-01-10T06:48:49.214Z,3.93
2023-01-10T06:51:20.200Z,3.00
2023-01-10T06:53:49.239Z,3.80
2023-01-10T06:56:17.729Z,3.47
2023-01-10T06:58:49.539Z,3.60
2023-01-10T07:01:20.173Z,3.63
2023-01-10T07:03:49.277Z,3.50
2023-01-10T07:06:17.965Z,3.60
2023-01-10T07:08:47.978Z,3.77
2023-01-10T07:11:18.059Z,3.97
2023-01-10T07:13:48.058Z,3.77
2023-01-10T07:16:17.799Z,3.63
2023-01-10T07:18:46.319Z,3.63
2023-01-10T07:21:15.622Z,3.90
2023-01-10T07:23:44.208Z,3.70
2023-01-10T07:26:17.880Z,3.50
2023-01-10T07:28:51.171Z,4.03
2023-01-10T07:31:23.025Z,3.80
2023-01-10T07:33:53.420Z,3.50
2023-01-10T07:36:21.909Z,3.70
2023-01-10T07:38:50.286Z,3.70
2023-01-10T07:41:18.732Z,3.50
2023-01-10T07:43:49.020Z,4.10
2023-01-10T07:46:17.630Z,4.13
2023-01-10T07:48:47.187Z,3.60
2023-01-10T07:51:15.569Z,3.97
2023-01-10T07:53:44.014Z,3.77
2023-01-10T07:56:12.496Z,3.93
2023-01-10T07:58:40.927Z,3.97
2023-01-10T08:01:10.934Z,3.70
2023-01-10T08:03:39.527Z,4.30
2023-01-10T08:06:11.441Z,4.77
2023-01-10T08:08:40.470Z,3.70
2023-01-10T08:11:24.197Z,3.70
2023-01-10T08:13:52.724Z,4.73
2023-01-10T08:16:22.955Z,3.90
2023-01-10T08:18:51.444Z,4.30
2023-01-10T08:21:19.873Z,4.03
2023-01-10T08:23:48.347Z,4.07
2023-01-10T08:26:16.721Z,4.70
2023-01-10T08:28:45.181Z,4.27
2023-01-10T08:31:13.775Z,4.57
2023-01-10T08:33:43.642Z,4.17
2023-01-10T08:36:19.033Z,4.60
2023-01-10T08:38:48.129Z,4.43
2023-01-10T08:41:16.553Z,4.40
2023-01-10T08:43:45.011Z,4.53
2023-01-10T08:46:13.549Z,4.20
2023-01-10T08:48:43.552Z,4.17
2023-01-10T08:51:12.216Z,4.10
2023-01-10T08:53:41.596Z,4.10
2023-01-10T08:56:10.981Z,4.03
2023-01-10T08:58:39.724Z,4.60
2023-01-10T09:01:09.588Z,4.27
2023-01-10T09:03:38.051Z,4.27
2023-01-10T09:06:09.715Z,3.90
2023-01-10T09:08:38.467Z,4.30
2023-01-10T09:11:07.565Z,4.10
2023-01-10T09:13:36.068Z,4.00
2023-01-10T09:16:05.242Z,3.90
2023-01-10T09:18:34.353Z,4.50
2023-01-10T09:21:03.622Z,3.73
2023-01-10T09:23:35.998Z,4.17
2023-01-10T09:26:05.444Z,4.53
2023-01-10T09:28:33.982Z,4.07
2023-01-10T09:31:04.608Z,3.90
2023-01-10T09:33:45.760Z,4.07
2023-01-10T09:36:15.974Z,3.70
2023-01-10T09:38:46.092Z,4.47
2023-01-10T09:41:44.255Z,3.93
2023-01-10T09:44:21.133Z,4.20
2023-01-10T09:46:58.013Z,4.00
2023-01-10T09:49:41.887Z,4.10
2023-01-10T09:52:20.881Z,4.07
2023-01-10T09:54:53.786Z,3.90
2023-01-10T09:57:24.268Z,4.07
2023-01-10T09:59:55.067Z,4.00
2023-01-10T10:02:30.883Z,4.07
2023-01-10T10:05:14.593Z,3.53
2023-01-10T10:07:43.093Z,3.63
2023-01-10T10:10:19.771Z,3.70
2023-01-10T10:12:56.748Z,3.83
2023-01-10T10:15:35.577Z,4.00
2023-01-10T10:18:12.528Z,3.50
2023-01-10T10:20:52.919Z,4.10
2023-01-10T10:23:46.341Z,4.23
2023-01-10T10:26:24.109Z,3.77
2023-01-10T10:29:31.007Z,4.60
2023-01-10T10:32:23.543Z,4.47
2023-01-10T10:34:56.601Z,4.80
2023-01-10T10:37:33.124Z,4.57
2023-01-10T10:40:04.914Z,4.17
2023-01-10T10:42:37.616Z,5.07
2023-01-10T10:45:09.681Z,4.40
2023-01-10T10:47:41.014Z,4.30
2023-01-10T10:50:22.729Z,4.33
2023-01-10T10:52:51.598Z,4.50
2023-01-10T10:55:32.449Z,4.07
2023-01-10T10:58:03.689Z,4.50
2023-01-10T11:00:33.097Z,4.33
2023-01-10T11:03:07.471Z,4.70
2023-01-10T11:05:40.556Z,4.63
2023-01-10T11:08:12.759Z,4.50
2023-01-10T11:10:42.085Z,4.40
2023-01-10T11:13:22.941Z,4.40
2023-01-10T11:15:53.186Z,4.53
2023-01-10T11:18:25.669Z,4.90
2023-01-10T11:21:00.790Z,4.70
2023-01-10T11:23:43.349Z,4.80
2023-01-10T11:26:25.693Z,4.20
2023-01-10T11:29:07.370Z,4.80
2023-01-10T11:31:37.742Z,4.07
2023-01-10T11:34:09.976Z,4.83
2023-01-10T11:36:58.384Z,4.30
2023-01-10T11:39:28.187Z,3.83
2023-01-10T11:41:59.675Z,3.97
2023-01-10T11:44:31.067Z,4.23
2023-01-10T11:47:03.740Z,4.43
2023-01-10T11:49:36.825Z,4.37
2023-01-10T11:52:08.051Z,4.80
2023-01-10T11:54:36.656Z,4.80
2023-01-10T11:57:10.044Z,4.20
2023-01-10T11:59:40.005Z,4.40
2023-01-10T12:02:22.336Z,4.43
2023-01-10T12:04:53.068Z,4.70
2023-01-10T12:07:21.792Z,4.03
2023-01-10T12:09:58.254Z,4.03
2023-01-10T12:12:28.311Z,5.00
2023-01-10T12:15:00.440Z,4.53
2023-01-10T12:17:31.669Z,4.47
2023-01-10T12:20:03.169Z,4.23
2023-01-10T12:22:33.787Z,4.17
2023-01-10T12:25:03.920Z,5.27
2023-01-10T12:27:34.245Z,4.23
2023-01-10T12:30:08.645Z,5.20
2023-01-10T12:32:45.753Z,4.70
2023-01-10T12:35:20.779Z,4.50
2023-01-10T12:37:55.201Z,4.80
2023-01-10T12:40:32.308Z,4.53
2023-01-10T12:43:23.530Z,5.23
2023-01-10T12:45:59.579Z,4.60
2023-01-10T12:48:40.639Z,4.47
2023-01-10T12:51:16.911Z,4.93
2023-01-10T12:53:49.998Z,4.83
2023-01-10T12:56:20.536Z,5.20
2023-01-10T12:58:52.370Z,5.07
2023-01-10T13:01:28.938Z,4.53
2023-01-10T13:04:02.144Z,4.73
2023-01-10T13:06:34.835Z,4.83
2023-01-10T13:09:08.904Z,4.20
2023-01-10T13:11:47.088Z,5.57
2023-01-10T13:14:20.353Z,4.33
2023-01-10T13:16:55.494Z,4.53
2023-01-10T13:19:27.086Z,5.43
2023-01-10T13:22:27.984Z,4.63
2023-01-10T13:24:58.598Z,4.50
2023-01-10T13:27:32.097Z,5.00
2023-01-10T13:30:01.038Z,4.27
2023-01-10T13:32:35.557Z,4.30
2023-01-10T13:35:16.347Z,3.80
2023-01-10T13:37:47.017Z,3.43
2023-01-10T13:40:24.749Z,4.07
2023-01-10T13:43:31.817Z,3.73
2023-01-10T13:46:29.899Z,3.70
2023-01-10T13:49:28.124Z,4.03
2023-01-10T13:52:38.874Z,3.70
2023-01-10T13:55:36.542Z,4.13
2023-01-10T13:58:06.745Z,4.97
2023-01-10T14:01:17.698Z,4.23
2023-01-10T14:03:58.410Z,4.57
2023-01-10T14:06:43.569Z,4.53
2023-01-10T14:09:46.810Z,4.60
2023-01-10T14:12:29.542Z,4.97
2023-01-10T14:15:02.151Z,5.23
2023-01-10T14:17:33.487Z,5.37
2023-01-10T14:20:19.693Z,4.83
2023-01-10T14:23:06.758Z,5.20
2023-01-10T14:25:37.176Z,5.50
2023-01-10T14:28:15.924Z,5.23
2023-01-10T14:30:44.704Z,5.00
2023-01-10T14:33:17.783Z,4.93
2023-01-10T14:35:49.261Z,5.50
2023-01-10T14:38:25.629Z,5.40
2023-01-10T14:40:58.800Z,5.50
2023-01-10T14:43:30.301Z,5.33
2023-01-10T14:46:05.060Z,5.40
2023-01-10T14:48:35.409Z,6.07
2023-01-10T14:51:22.422Z,5.47
2023-01-10T14:54:00.116Z,5.90
2023-01-10T14:56:30.542Z,6.23
2023-01-10T14:58:58.974Z,6.40
2023-01-10T15:01:29.777Z,6.50
2023-01-10T15:03:59.186Z,6.23
2023-01-10T15:06:27.963Z,6.47
2023-01-10T15:09:07.458Z,5.93
2023-01-10T15:11:36.265Z,6.73
2023-01-10T15:14:11.079Z,8.53
2023-01-10T15:16:42.699Z,9.63
2023-01-10T15:19:16.627Z,7.83
2023-01-10T15:21:46.227Z,6.20
2023-01-10T15:24:43.060Z,4.80
2023-01-10T15:27:16.057Z,4.27
2023-01-10T15:29:47.210Z,3.43
2023-01-10T15:32:28.075Z,4.10
2023-01-10T15:34:58.796Z,4.60
2023-01-10T15:37:34.222Z,4.20
2023-01-10T15:40:06.648Z,4.60
2023-01-10T15:42:35.568Z,5.70
2023-01-10T15:45:20.117Z,6.53
2023-01-10T15:48:03.169Z,7.30
2023-01-10T15:50:34.117Z,6.63
2023-01-10T15:53:05.376Z,6.90
2023-01-10T15:55:41.762Z,5.80
2023-01-10T15:58:24.540Z,5.77
2023-01-10T16:00:54.825Z,5.50
2023-01-10T16:03:27.890Z,7.10
2023-01-10T16:05:59.450Z,6.60
2023-01-10T16:08:29.961Z,7.20
2023-01-10T16:11:01.518Z,8.07
2023-01-10T16:13:31.719Z,7.50
2023-01-10T16:16:01.232Z,7.33
2023-01-10T16:18:29.735Z,8.00
2023-01-10T16:21:00.721Z,7.83
2023-01-10T16:23:34.197Z,8.70
2023-01-10T16:26:08.686Z,8.50
2023-01-10T16:28:39.292Z,9.90
2023-01-10T16:31:08.215Z,8.90
2023-01-10T16:33:37.779Z,9.13
2023-01-10T16:36:14.689Z,9.73
2023-01-10T16:38:43.965Z,9.43
2023-01-10T16:41:32.724Z,8.90
2023-01-10T16:44:02.107Z,8.13
2023-01-10T16:46:31.650Z,8.30
2023-01-10T16:49:00.688Z,8.40
2023-01-10T16:51:32.674Z,8.47
2023-01-10T16:54:01.448Z,9.40
2023-01-10T16:56:31.778Z,10.53
2023-01-10T16:59:00.408Z,13.17
2023-01-10T17:01:32.494Z,12.13
2023-01-10T17:04:01.795Z,17.90
2023-01-10T17:06:30.274Z,25.20
2023-01-10T17:08:59.323Z,21.27
2023-01-10T17:11:30.687Z,21.77
2023-01-10T17:14:05.584Z,22.07
2023-01-10T17:16:35.322Z,19.50
2023-01-10T17:19:04.178Z,19.97
2023-01-10T17:21:32.693Z,21.47
2023-01-10T17:24:01.166Z,15.53
2023-01-10T17:26:29.634Z,14.70
2023-01-10T17:28:58.237Z,31.00
2023-01-10T17:31:28.160Z,42.23
2023-01-10T17:33:56.864Z,39.63
2023-01-10T17:36:29.406Z,40.17
2023-01-10T17:38:58.243Z,36.17
2023-01-10T17:41:27.120Z,30.37
2023-01-10T17:43:55.516Z,24.93
2023-01-10T17:46:24.006Z,19.80
2023-01-10T17:48:53.873Z,18.47
2023-01-10T17:51:24.883Z,19.00
2023-01-10T17:53:55.701Z,18.97
2023-01-10T17:56:24.797Z,18.80
2023-01-10T17:58:53.881Z,20.03
2023-01-10T18:01:25.656Z,17.80
2023-01-10T18:03:56.133Z,19.23
2023-01-10T18:06:25.374Z,19.03
2023-01-10T18:08:54.299Z,19.63
2023-01-10T18:11:25.339Z,17.93
2023-01-10T18:13:53.903Z,12.60
2023-01-10T18:16:26.250Z,12.77
2023-01-10T18:18:57.374Z,11.27
2023-01-10T18:21:26.332Z,9.57
2023-01-10T18:23:59.754Z,7.70
2023-01-10T18:26:28.122Z,8.00
2023-01-10T18:28:56.625Z,7.47
2023-01-10T18:31:25.081Z,6.93
2023-01-10T18:33:53.935Z,7.27
2023-01-10T18:36:25.089Z,6.77
2023-01-10T18:38:53.938Z,6.80
2023-01-10T18:41:22.879Z,6.97
2023-01-10T18:43:51.362Z,6.43
2023-01-10T18:46:21.412Z,6.33
2023-01-10T18:48:52.732Z,6.70
2023-01-10T18:51:22.932Z,5.60
2023-01-10T18:53:54.299Z,5.20
2023-01-10T18:56:22.814Z,5.93
2023-01-10T18:58:51.234Z,5.03
2023-01-10T19:01:22.414Z,5.50
2023-01-10T19:03:51.328Z,5.87
2023-01-10T19:06:22.871Z,5.57
2023-01-10T19:08:52.949Z,6.17
2023-01-10T19:11:21.705Z,6.80
2023-01-10T19:13:52.179Z,6.93
2023-01-10T19:16:22.922Z,7.67
2023-01-10T19:18:53.616Z,8.13
2023-01-10T19:21:22.583Z,7.77
2023-01-10T19:23:55.244Z,6.50
2023-01-10T19:26:24.289Z,6.53
2023-01-10T19:28:53.023Z,6.53
2023-01-10T19:31:23.911Z,6.80
2023-01-10T19:33:53.135Z,6.67
2023-01-10T19:36:23.935Z,5.80
2023-01-10T19:38:57.139Z,5.50
2023-01-10T19:41:25.753Z,6.30
2023-01-10T19:43:58.421Z,5.90
2023-01-10T19:46:27.667Z,5.83
2023-01-10T19:48:57.832Z,6.63
2023-01-10T19:51:26.719Z,6.73
2023-01-10T19:53:56.614Z,5.97
2023-01-10T19:56:25.052Z,7.30
2023-01-10T19:58:55.591Z,6.97
2023-01-10T20:01:26.007Z,6.43
2023-01-10T20:03:55.663Z,6.70
2023-01-10T20:06:26.826Z,6.57
2023-01-10T20:08:56.915Z,7.37
2023-01-10T20:11:26.847Z,7.07
2023-01-10T20:13:55.499Z,7.10
2023-01-10T20:16:26.692Z,7.53
2023-01-10T20:18:55.180Z,18.87
2023-01-10T20:21:23.679Z,20.03
2023-01-10T20:23:52.166Z,31.83
2023-01-10T20:26:23.608Z,47.33
2023-01-10T20:28:52.215Z,111.33
2023-01-10T20:31:23.075Z,73.70
2023-01-10T20:33:51.858Z,63.20
2023-01-10T20:36:22.307Z,218.03
2023-01-10T20:38:51.121Z,197.77
2023-01-10T20:41:23.801Z,92.27
2023-01-10T20:43:52.609Z,356.73
2023-01-10T20:46:23.282Z,157.83
2023-01-10T20:48:52.594Z,37.13
2023-01-10T20:51:23.845Z,11.97
2023-01-10T20:53:52.962Z,11.53
2023-01-10T20:56:25.009Z,13.37
2023-01-10T20:58:54.624Z,13.47
2023-01-10T21:01:34.104Z,13.13
2023-01-10T21:04:04.164Z,12.23
2023-01-10T21:06:32.823Z,13.00
2023-01-10T21:09:01.518Z,13.43
2023-01-10T21:11:31.420Z,12.67
2023-01-10T21:13:59.848Z,13.00
2023-01-10T21:16:28.365Z,13.83
2023-01-10T21:18:56.811Z,13.60
2023-01-10T21:21:25.252Z,12.50
2023-01-10T21:23:55.197Z,13.43
2023-01-10T21:26:24.324Z,14.73
2023-01-10T21:28:54.181Z,14.53
2023-01-10T21:31:23.321Z,188.70
2023-01-10T21:33:51.967Z,56.07
2023-01-10T21:36:20.415Z,63.00
2023-01-10T21:38:49.749Z,204.10
2023-01-10T21:41:40.508Z,98.27
2023-01-10T21:44:10.899Z,162.30
2023-01-10T21:46:41.257Z,34.40
2023-01-10T21:49:10.888Z,255.47
2023-01-10T21:51:39.373Z,168.40
2023-01-10T21:54:07.949Z,187.43
2023-01-10T21:56:36.418Z,128.80
2023-01-10T21:59:04.907Z,346.20
2023-01-10T22:01:34.826Z,177.70
2023-01-10T22:04:03.434Z,28.77
2023-01-10T22:06:32.099Z,14.60
2023-01-10T22:09:00.589Z,84.13
2023-01-10T22:11:29.408Z,50.40
2023-01-10T22:13:58.403Z,16.03
2023-01-10T22:16:26.854Z,11.43
2023-01-10T22:18:56.884Z,12.33
2023-01-10T22:21:25.860Z,11.40
2023-01-10T22:23:54.247Z,11.67
2023-01-10T22:26:22.725Z,11.37
2023-01-10T22:28:51.231Z,11.43
2023-01-10T22:31:19.770Z,11.30
2023-01-10T22:33:48.324Z,10.90
2023-01-10T22:36:20.114Z,10.20
2023-01-10T22:38:49.658Z,10.77
2023-01-10T22:41:20.064Z,10.57
2023-01-10T22:43:49.040Z,10.90
2023-01-10T22:46:17.571Z,10.93
2023-01-10T22:48:46.371Z,11.53
2023-01-10T22:51:15.647Z,11.43
2023-01-10T22:53:50.658Z,10.40
2023-01-10T22:56:19.457Z,10.40
2023-01-10T22:58:49.126Z,9.60
2023-01-10T23:01:19.600Z,8.67
2023-01-10T23:03:48.126Z,8.53
2023-01-10T23:06:16.898Z,9.50
2023-01-10T23:08:47.611Z,8.80
2023-01-10T23:11:18.890Z,9.30
2023-01-10T23:13:48.111Z,9.10
2023-01-10T23:16:20.401Z,9.97
2023-01-10T23:18:49.203Z,9.83
2023-01-10T23:21:17.957Z,9.50
2023-01-10T23:23:47.798Z,9.90
2023-01-10T23:26:16.338Z,10.13
2023-01-10T23:28:47.250Z,10.17
2023-01-10T23:31:16.793Z,11.03
2023-01-10T23:33:45.271Z,13.53
2023-01-10T23:36:14.278Z,14.00
2023-01-10T23:38:42.780Z,10.87
2023-01-10T23:41:16.189Z,11.07
2023-01-10T23:43:44.648Z,11.57
2023-01-10T23:46:13.079Z,9.90
2023-01-10T23:48:43.403Z,9.57
2023-01-10T23:51:12.249Z,10.30
2023-01-10T23:53:41.211Z,11.20
2023-01-10T23:56:12.924Z,9.77
2023-01-10T23:58:42.124Z,9.63
